Bookmark and Share
Track history (hours):
 

MSC Vigo

Last reported at 2014-Apr-25 00:30 UTC. Time now 2014-Apr-25 06:02 UTC.
Position N 39°40' E 000°42'.

Length 270 m; draft 10.2 m.

Type: Ship (hazmat cat A). MMSI: 636092276.

NotesDate/timePositionNaut miles runAvg speedWind from/ knotsBaromVisibWave heightAir tempDewpointWater temp
2014-Apr-25 00:30N 39°40' E 000°42'1212.7
2014-Apr-24 23:33N 39°46' E 000°55'1414.3
2014-Apr-24 22:33N 39°58' E 001°05'1413.7
2014-Apr-24 21:33N 40°09' E 001°15'1413.9
2014-Apr-24 20:33N 40°21' E 001°25'1413.6
2014-Apr-24 19:33N 40°32' E 001°35'1413.9
2014-Apr-24 18:33N 40°44' E 001°45'5 8.6
2014-Apr-24 18:00N 40°48' E 001°48'921.5 220 / 81013.010.8 21.0
2014-Apr-24 17:33N 40°56' E 001°55'1312.9
2014-Apr-24 16:33N 41°07' E 002°04'1312.5
2014-Apr-24 15:33N 41°18' E 002°10'1 0.2
2014-Apr-24 10:13N 41°18' E 002°09'0 0.0
2014-Apr-24 09:31N 41°18' E 002°09'0 0.0
2014-Apr-24 06:31N 41°18' E 002°09'0 0.0
2014-Apr-24 05:31N 41°18' E 002°09'1 1.0
2014-Apr-24 04:33N 41°19' E 002°10'5 4.9
2014-Apr-24 03:33N 41°17' E 002°16'1515.3
2014-Apr-24 02:33N 41°23' E 002°35'1515.0
2014-Apr-24 01:32N 41°30' E 002°52'1515.4
2014-Apr-24 00:33N 41°38' E 003°10'1515.1
2014-Apr-23 23:33N 41°48' E 003°25'1515.1
2014-Apr-23 22:33N 41°60' E 003°38'1515.3
2014-Apr-23 21:33N 42°11' E 003°51'1515.4
2014-Apr-23 20:33N 42°23' E 004°05'1615.5
2014-Apr-23 19:33N 42°35' E 004°18'1615.8
2014-Apr-23 18:33N 42°47' E 004°32'1615.6
2014-Apr-23 17:33N 42°59' E 004°46'1515.0
2014-Apr-23 16:33N 43°10' E 004°60'1313.5
2014-Apr-23 15:33N 43°23' E 004°56'5 4.6
2014-Apr-23 14:31N 43°25' E 004°50'0 0.0
2014-Apr-23 13:32N 43°25' E 004°50'0 0.0
2014-Apr-23 12:31N 43°25' E 004°50'0 0.0
2014-Apr-23 11:31N 43°25' E 004°50'0 0.0
2014-Apr-23 10:31N 43°25' E 004°50'0 0.0
2014-Apr-23 09:31N 43°25' E 004°50'0 0.0
2014-Apr-23 08:31N 43°25' E 004°50'0 0.0
2014-Apr-23 07:31N 43°25' E 004°50'0 0.0
2014-Apr-23 06:31N 43°25' E 004°50'0 0.0
2014-Apr-23 05:31N 43°25' E 004°50'0 0.0
2014-Apr-23 04:31N 43°25' E 004°50'0 0.0
2014-Apr-23 03:31N 43°25' E 004°50'0 0.0
2014-Apr-23 02:31N 43°25' E 004°50'2 2.3
2014-Apr-23 01:33N 43°24' E 004°53'9 9.5
2014-Apr-23 00:34N 43°16' E 005°01'9 9.2
2014-Apr-22 23:34N 43°09' E 005°08'10 9.7
2014-Apr-22 22:33N 43°04' E 005°19'10 9.6
2014-Apr-22 21:34N 42°58' E 005°30'1010.0
2014-Apr-22 20:34N 42°52' E 005°41'10 9.9
2014-Apr-22 19:34N 42°49' E 005°54'1110.5
2014-Apr-22 18:34N 42°50' E 006°08'3 5.5
2014-Apr-22 18:00N 42°48' E 006°12'921.3 090 / 141015.027.0 18.0
2014-Apr-22 17:33N 42°50' E 006°24'1413.6
2014-Apr-22 16:34N 42°56' E 006°41'1414.1
2014-Apr-22 15:32N 43°04' E 006°57'2913.8
2014-Apr-22 13:26N 43°22' E 007°29'3313.9
2014-Apr-22 11:05N 43°41' E 008°05'814.9
2014-Apr-22 10:34N 43°46' E 008°14'1514.5
2014-Apr-22 09:34N 43°57' E 008°27'1414.1
2014-Apr-22 08:34N 44°09' E 008°37'1313.4
2014-Apr-22 07:33N 44°22' E 008°42'5 4.6
2014-Apr-22 06:33N 44°25' E 008°47'0 0.0
2014-Apr-22 05:33N 44°25' E 008°47'0 0.0
2014-Apr-22 04:30N 44°25' E 008°47'0 0.0
2014-Apr-22 03:33N 44°25' E 008°47'0 0.0
2014-Apr-22 02:33N 44°25' E 008°47'0 0.0
2014-Apr-22 01:33N 44°25' E 008°47'0 0.0
2014-Apr-22 00:33N 44°25' E 008°47'0 0.0
2014-Apr-21 23:33N 44°25' E 008°47'0 0.0
2014-Apr-21 22:30N 44°25' E 008°47'0 0.0
2014-Apr-21 21:33N 44°25' E 008°47'0 0.0
2014-Apr-21 20:15N 44°25' E 008°47'0 0.0
2014-Apr-21 18:21N 44°25' E 008°47'0 0.0
2014-Apr-21 17:33N 44°25' E 008°47'0 0.0
2014-Apr-21 16:33N 44°25' E 008°47'0 0.0
2014-Apr-21 15:33N 44°25' E 008°47'0 0.0
2014-Apr-21 14:33N 44°25' E 008°47'0 0.0
2014-Apr-21 13:30N 44°25' E 008°47'0 0.0
2014-Apr-21 12:30N 44°25' E 008°47'0 0.0
2014-Apr-21 11:33N 44°25' E 008°47'0 0.0
2014-Apr-21 10:33N 44°25' E 008°47'0 0.0
2014-Apr-21 09:30N 44°25' E 008°47'0 0.0
2014-Apr-21 08:30N 44°25' E 008°47'0 0.0
2014-Apr-21 07:33N 44°25' E 008°47'0 0.0
2014-Apr-21 06:27N 44°25' E 008°47'0 0.0
2014-Apr-21 05:21N 44°25' E 008°47'0 0.0
2014-Apr-21 04:33N 44°25' E 008°47'0 0.0
2014-Apr-21 03:27N 44°25' E 008°47'0 0.0
2014-Apr-21 02:30N 44°25' E 008°47'0 0.0
2014-Apr-21 01:24N 44°25' E 008°47'0 0.0
2014-Apr-21 00:33N 44°25' E 008°47'0 0.0
2014-Apr-20 23:27N 44°25' E 008°47'0 0.0
2014-Apr-20 22:30N 44°25' E 008°47'0 0.0
2014-Apr-20 21:33N 44°25' E 008°47'0 0.0
2014-Apr-20 20:33N 44°25' E 008°47'0 0.0
2014-Apr-20 19:33N 44°25' E 008°47'0 0.0
2014-Apr-20 18:27N 44°25' E 008°47'0 0.0
2014-Apr-20 17:33N 44°25' E 008°47'0 0.0
2014-Apr-20 16:30N 44°25' E 008°47'0 0.0
2014-Apr-20 15:30N 44°25' E 008°47'0 0.0
2014-Apr-20 14:33N 44°25' E 008°47'5 4.7
2014-Apr-20 13:33N 44°21' E 008°43'1312.5
2014-Apr-20 12:33N 44°12' E 008°56'1514.8
2014-Apr-20 11:33N 44°02' E 009°11'1514.5
2014-Apr-20 10:33N 43°53' E 009°26'1414.2
2014-Apr-20 09:33N 43°43' E 009°41'1413.9
2014-Apr-20 08:34N 43°34' E 009°55'1313.0
2014-Apr-20 07:33N 43°31' E 010°13'5 4.6
2014-Apr-20 06:28N 43°34' E 010°18'0 0.0
2014-Apr-20 05:31N 43°34' E 010°18'0 0.0
2014-Apr-20 04:31N 43°34' E 010°18'0 0.0
2014-Apr-20 03:31N 43°34' E 010°18'0 0.0
2014-Apr-20 02:31N 43°34' E 010°18'0 0.0
2014-Apr-20 01:31N 43°34' E 010°18'0 0.0
2014-Apr-20 00:31N 43°34' E 010°18'0 0.0
2014-Apr-19 23:31N 43°34' E 010°18'0 0.0
2014-Apr-19 22:31N 43°34' E 010°18'0 0.0
2014-Apr-19 21:31N 43°34' E 010°18'0 0.0
2014-Apr-19 20:31N 43°34' E 010°18'0 0.0
2014-Apr-19 19:31N 43°34' E 010°18'0 0.0
2014-Apr-19 18:31N 43°34' E 010°18'0 0.0
2014-Apr-19 17:31N 43°34' E 010°18'0 0.0
2014-Apr-19 16:31N 43°34' E 010°18'0 0.0
2014-Apr-19 15:31N 43°34' E 010°18'0 0.0
2014-Apr-19 14:28N 43°34' E 010°18'0 0.0
2014-Apr-19 13:31N 43°34' E 010°18'0 0.0
2014-Apr-19 12:31N 43°34' E 010°18'0 0.0
2014-Apr-19 11:31N 43°34' E 010°18'0 0.0
2014-Apr-19 10:31N 43°34' E 010°18'0 0.0
2014-Apr-19 09:31N 43°34' E 010°18'0 0.0
2014-Apr-19 08:31N 43°34' E 010°18'0 0.0
2014-Apr-19 07:31N 43°34' E 010°18'0 0.0
2014-Apr-19 06:31N 43°34' E 010°18'1 1.0
2014-Apr-19 05:33N 43°34' E 010°18'5 5.3
2014-Apr-19 04:33N 43°29' E 010°14'1 0.7
2014-Apr-19 03:33N 43°29' E 010°15'2 2.4
2014-Apr-19 02:33N 43°28' E 010°12'6 6.5
2014-Apr-19 01:33N 43°21' E 010°10'1111.4
2014-Apr-19 00:33N 43°11' E 010°05'1414.0
2014-Apr-18 23:34N 42°57' E 009°59'6712.1
2014-Apr-18 18:00N 41°54' E 010°30'15913.3 230 / 81007.010.8 0.516.010.3
2014-Apr-18 06:00N 40°12' E 013°12'108 2.3 250 / 31010.027.0 15.0
2014-Apr-16 06:00N 38°24' E 013°18'8013.3 360 / 81013.527.0 0.513.0
2014-Apr-16 00:00N 38°24' E 011°36'7413.5 010 / 231012.5 5.4 1.015.013.220.0
2014-Apr-15 18:33N 38°34' E 010°03'814.7
2014-Apr-15 18:00N 38°30' E 009°54'920.6 280 / 191011.0 5.4 0.519.0
2014-Apr-15 17:34N 38°35' E 009°45'1414.1
2014-Apr-15 16:33N 38°36' E 009°27'1413.9
2014-Apr-15 15:33N 38°37' E 009°09'4210.6
2014-Apr-15 11:34N 38°40' E 008°15'11019.8
2014-Apr-15 06:00N 38°48' E 005°54'   260 / 41015.0 5.4 16.0

Dump ship's entire track history

sailing weather and tide predictions

MSC Vigo — A8ZV8 — position and weather